createdAt,value
2019-05-15T00:02:04.883Z,83.96
2019-05-15T00:04:12.219Z,83.32
2019-05-15T00:06:19.558Z,84.48
2019-05-15T00:08:28.781Z,83.72
2019-05-15T00:10:38.577Z,83.79
2019-05-15T00:12:45.231Z,83.29
2019-05-15T00:14:52.612Z,83.85
2019-05-15T00:16:59.935Z,83.94
2019-05-15T00:19:08.631Z,83.13
2019-05-15T00:21:17.994Z,83.52
2019-05-15T00:23:25.409Z,84.27
2019-05-15T00:25:33.495Z,83.29
2019-05-15T00:27:40.920Z,84.37
2019-05-15T00:29:48.729Z,83.66
2019-05-15T00:31:58.776Z,84.60
2019-05-15T00:34:05.525Z,83.21
2019-05-15T00:36:12.918Z,84.30
2019-05-15T00:38:20.368Z,83.57
2019-05-15T00:40:28.878Z,83.62
2019-05-15T00:42:38.509Z,83.25
2019-05-15T00:44:45.449Z,83.06
2019-05-15T00:46:52.797Z,83.18
2019-05-15T00:49:00.165Z,83.52
2019-05-15T00:51:08.450Z,83.64
2019-05-15T00:53:15.944Z,83.54
2019-05-15T00:55:23.365Z,83.76
2019-05-15T00:57:30.727Z,83.84
2019-05-15T00:59:39.004Z,84.34
2019-05-15T01:01:48.739Z,84.72
2019-05-15T01:03:58.590Z,84.12
2019-05-15T01:06:08.359Z,83.52
2019-05-15T01:08:15.988Z,84.18
2019-05-15T01:10:24.384Z,84.36
2019-05-15T01:12:31.835Z,84.32
2019-05-15T01:14:39.246Z,84.13
2019-05-15T01:16:48.805Z,84.77
2019-05-15T01:18:55.701Z,84.40
2019-05-15T01:21:03.103Z,84.03
2019-05-15T01:23:10.584Z,83.08
2019-05-15T01:25:18.628Z,83.49
2019-05-15T01:27:26.099Z,83.19
2019-05-15T01:29:41.803Z,83.58
2019-05-15T01:31:42.551Z,83.97
2019-05-15T01:33:49.890Z,84.42
2019-05-15T01:35:59.071Z,83.24
2019-05-15T01:38:08.189Z,84.07
2019-05-15T01:40:18.106Z,84.06
2019-05-15T01:42:25.057Z,84.16
2019-05-15T01:44:32.404Z,83.94
2019-05-15T01:46:39.792Z,83.40
2019-05-15T01:48:49.286Z,84.01
2019-05-15T01:50:58.389Z,83.02
2019-05-15T01:53:05.329Z,83.54
2019-05-15T01:55:14.299Z,83.32
2019-05-15T01:57:21.702Z,84.54
2019-05-15T01:59:29.031Z,83.78
2019-05-15T02:01:38.924Z,83.60
2019-05-15T02:03:45.706Z,84.67
2019-05-15T02:05:53.512Z,84.70
2019-05-15T02:08:00.835Z,84.43
2019-05-15T02:10:09.530Z,84.68
2019-05-15T02:12:18.997Z,84.81
2019-05-15T02:14:28.335Z,84.48
2019-05-15T02:16:35.269Z,84.97
2019-05-15T02:18:42.735Z,84.07
2019-05-15T02:20:50.112Z,84.16
2019-05-15T02:22:59.099Z,84.28
2019-05-15T02:25:08.549Z,85.27
2019-05-15T02:27:18.619Z,84.04
2019-05-15T02:29:25.480Z,84.24
2019-05-15T02:31:32.852Z,84.59
2019-05-15T02:33:40.434Z,84.81
2019-05-15T02:35:50.185Z,85.05
2019-05-15T02:37:59.764Z,85.77
2019-05-15T02:40:09.864Z,84.95
2019-05-15T02:42:19.040Z,84.90
2019-05-15T02:44:25.434Z,85.38
2019-05-15T02:46:32.921Z,84.73
2019-05-15T02:48:41.197Z,84.70
2019-05-15T02:50:50.122Z,84.80
2019-05-15T02:53:00.563Z,85.50
2019-05-15T02:55:09.337Z,83.93
2019-05-15T02:57:19.219Z,85.27
2019-05-15T02:59:29.013Z,84.99
2019-05-15T03:01:35.904Z,85.13
2019-05-15T03:03:43.259Z,85.46
2019-05-15T03:05:50.641Z,85.20
2019-05-15T03:07:59.420Z,85.06
2019-05-15T03:10:09.369Z,86.51
2019-05-15T03:12:19.549Z,86.72
2019-05-15T03:14:28.890Z,84.45
2019-05-15T03:16:35.037Z,85.29
2019-05-15T03:18:42.604Z,85.18
2019-05-15T03:20:50.413Z,84.72
2019-05-15T03:22:59.718Z,84.46
2019-05-15T03:25:10.585Z,84.14
2019-05-15T03:27:19.684Z,84.68
2019-05-15T03:29:29.031Z,85.75
2019-05-15T03:31:53.010Z,84.09
2019-05-15T03:33:47.018Z,84.20
2019-05-15T03:35:55.005Z,84.05
2019-05-15T03:38:02.619Z,84.13
2019-05-15T03:40:10.905Z,84.05
2019-05-15T03:42:19.077Z,83.27
2019-05-15T03:44:28.712Z,83.93
2019-05-15T03:46:39.601Z,85.81
2019-05-15T03:48:48.534Z,84.23
2019-05-15T03:50:54.734Z,85.16
2019-05-15T03:53:04.773Z,85.62
2019-05-15T03:55:13.011Z,85.76
2019-05-15T03:57:23.195Z,84.69
2019-05-15T03:59:29.713Z,84.52
2019-05-15T04:01:43.080Z,84.17
2019-05-15T04:03:49.492Z,85.45
2019-05-15T04:05:55.927Z,84.49
2019-05-15T04:08:03.511Z,84.75
2019-05-15T04:10:11.787Z,85.41
2019-05-15T04:12:19.755Z,85.75
2019-05-15T04:14:29.589Z,85.48
2019-05-15T04:16:39.094Z,85.67
2019-05-15T04:18:48.833Z,85.69
2019-05-15T04:20:55.106Z,84.85
2019-05-15T04:23:02.539Z,84.17
2019-05-15T04:25:11.066Z,84.32
2019-05-15T04:27:21.398Z,84.68
2019-05-15T04:29:29.094Z,85.01
2019-05-15T04:31:54.524Z,84.79
2019-05-15T04:33:48.881Z,85.94
2019-05-15T04:35:55.006Z,85.74
2019-05-15T04:38:02.540Z,85.54
2019-05-15T04:40:10.212Z,85.79
2019-05-15T04:42:20.108Z,85.11
2019-05-15T04:44:28.944Z,85.10
2019-05-15T04:46:38.954Z,85.36
2019-05-15T04:48:45.190Z,85.94
2019-05-15T04:50:53.038Z,85.73
2019-05-15T04:53:00.449Z,86.18
2019-05-15T04:55:10.066Z,85.61
2019-05-15T04:57:19.425Z,85.21
2019-05-15T04:59:29.882Z,86.30
2019-05-15T05:01:39.864Z,85.27
2019-05-15T05:03:45.564Z,85.59
2019-05-15T05:05:53.651Z,86.02
2019-05-15T05:08:01.545Z,85.91
2019-05-15T05:10:10.061Z,85.45
2019-05-15T05:12:19.304Z,86.01
2019-05-15T05:14:28.567Z,86.34
2019-05-15T05:16:39.209Z,86.25
2019-05-15T05:18:48.569Z,86.23
2019-05-15T05:20:57.603Z,85.74
2019-05-15T05:23:04.761Z,85.71
2019-05-15T05:25:12.349Z,86.45
2019-05-15T05:27:19.723Z,86.50
2019-05-15T05:29:28.033Z,86.46
2019-05-15T05:31:38.858Z,86.55
2019-05-15T05:33:45.691Z,86.30
2019-05-15T05:35:53.129Z,86.74
2019-05-15T05:38:00.554Z,85.98
2019-05-15T05:40:08.621Z,86.26
2019-05-15T05:42:18.369Z,86.36
2019-05-15T05:44:25.570Z,85.08
2019-05-15T05:46:32.929Z,86.22
2019-05-15T05:48:40.401Z,86.37
2019-05-15T05:50:49.500Z,85.44
2019-05-15T05:52:57.993Z,85.67
2019-05-15T05:55:05.713Z,85.74
2019-05-15T05:57:13.154Z,86.39
2019-05-15T05:59:20.608Z,86.06
2019-05-15T06:01:28.357Z,86.64
2019-05-15T06:03:35.843Z,86.21
2019-05-15T06:05:43.298Z,86.39
2019-05-15T06:07:50.830Z,86.85
2019-05-15T06:09:58.406Z,86.66
2019-05-15T06:12:07.811Z,86.53
2019-05-15T06:14:15.092Z,86.55
2019-05-15T06:16:22.535Z,86.70
2019-05-15T06:18:30.109Z,86.48
2019-05-15T06:20:39.533Z,86.43
2019-05-15T06:22:47.901Z,86.61
2019-05-15T06:24:57.817Z,85.89
2019-05-15T06:27:04.728Z,85.75
2019-05-15T06:29:12.098Z,85.86
2019-05-15T06:31:19.470Z,86.15
2019-05-15T06:33:27.819Z,86.38
2019-05-15T06:35:35.259Z,86.77
2019-05-15T06:37:42.623Z,86.58
2019-05-15T06:39:50.001Z,86.36
2019-05-15T06:41:58.797Z,86.24
2019-05-15T06:44:07.969Z,86.11
2019-05-15T06:46:18.683Z,86.62
2019-05-15T06:48:25.674Z,86.72
2019-05-15T06:50:41.763Z,86.52
2019-05-15T06:52:49.193Z,86.02
2019-05-15T06:54:59.092Z,86.45
2019-05-15T06:57:05.694Z,86.58
2019-05-15T06:59:13.054Z,85.77
2019-05-15T07:01:20.492Z,86.49
2019-05-15T07:03:29.373Z,86.12
2019-05-15T07:05:38.635Z,86.44
2019-05-15T07:07:48.692Z,86.09
2019-05-15T07:09:58.028Z,86.69
2019-05-15T07:12:04.727Z,86.39
2019-05-15T07:14:12.339Z,86.31
2019-05-15T07:16:19.679Z,85.99
2019-05-15T07:18:28.377Z,85.88
2019-05-15T07:20:35.951Z,86.43
2019-05-15T07:22:43.346Z,86.49
2019-05-15T07:24:50.783Z,85.28
2019-05-15T07:26:59.113Z,86.37
2019-05-15T07:29:07.918Z,85.99
2019-05-15T07:31:15.391Z,86.08
2019-05-15T07:33:35.864Z,85.42
2019-05-15T07:35:31.914Z,85.33
2019-05-15T07:37:39.424Z,84.69
2019-05-15T07:39:48.828Z,85.60
2019-05-15T07:41:57.811Z,84.84
2019-05-15T07:44:07.811Z,85.55
2019-05-15T07:46:14.543Z,85.52
2019-05-15T07:48:22.115Z,85.04
2019-05-15T07:50:30.015Z,85.23
2019-05-15T07:52:39.422Z,85.56
2019-05-15T07:54:48.817Z,84.71
2019-05-15T07:56:58.163Z,84.64
2019-05-15T07:59:07.908Z,85.10
2019-05-15T08:01:14.981Z,84.81
2019-05-15T08:03:22.467Z,83.94
2019-05-15T08:05:30.002Z,84.32
2019-05-15T08:07:38.898Z,85.73
2019-05-15T08:09:48.617Z,85.15
2019-05-15T08:11:55.741Z,84.36
2019-05-15T08:14:03.751Z,84.44
2019-05-15T08:16:11.782Z,84.70
2019-05-15T08:18:19.559Z,84.33
2019-05-15T08:20:28.938Z,84.84
2019-05-15T08:22:38.334Z,84.21
2019-05-15T08:24:48.005Z,85.20
2019-05-15T08:26:54.753Z,84.84
2019-05-15T08:29:02.254Z,84.59
2019-05-15T08:31:10.573Z,84.92
2019-05-15T08:33:18.273Z,85.45
2019-05-15T08:35:25.819Z,84.66
2019-05-15T08:37:33.337Z,84.17
2019-05-15T08:39:40.845Z,85.21
2019-05-15T08:41:48.552Z,84.04
2019-05-15T08:43:57.971Z,83.82
2019-05-15T08:46:05.208Z,84.16
2019-05-15T08:48:21.767Z,84.15
2019-05-15T08:50:41.843Z,83.99
2019-05-15T08:52:49.849Z,83.95
2019-05-15T08:54:59.123Z,84.17
2019-05-15T08:57:08.496Z,83.55
2019-05-15T08:59:18.590Z,83.95
2019-05-15T09:01:25.422Z,83.56
2019-05-15T09:03:34.779Z,83.91
2019-05-15T09:05:42.399Z,84.72
2019-05-15T09:07:49.819Z,84.07
2019-05-15T09:09:58.043Z,84.63
2019-05-15T09:12:08.115Z,84.61
2019-05-15T09:14:14.730Z,84.96
2019-05-15T09:16:22.150Z,84.21
2019-05-15T09:18:29.576Z,84.47
2019-05-15T09:20:38.334Z,84.57
2019-05-15T09:22:45.952Z,84.03
2019-05-15T09:24:53.441Z,83.92
2019-05-15T09:27:00.998Z,84.16
2019-05-15T09:29:09.322Z,83.60
2019-05-15T09:31:19.293Z,83.92
2019-05-15T09:33:28.434Z,84.93
2019-05-15T09:35:35.179Z,83.44
2019-05-15T09:37:42.938Z,84.14
2019-05-15T09:39:50.997Z,84.02
2019-05-15T09:41:58.577Z,84.87
2019-05-15T09:44:08.012Z,84.07
2019-05-15T09:46:15.567Z,84.35
2019-05-15T09:48:22.976Z,83.73
2019-05-15T09:50:30.424Z,84.06
2019-05-15T09:52:38.836Z,83.73
2019-05-15T09:54:48.686Z,83.48
2019-05-15T09:56:55.711Z,83.61
2019-05-15T09:59:04.860Z,83.67
2019-05-15T10:01:12.843Z,83.85
2019-05-15T10:03:20.422Z,83.32
2019-05-15T10:05:28.190Z,83.30
2019-05-15T10:07:35.912Z,84.06
2019-05-15T10:09:43.382Z,83.70
2019-05-15T10:11:50.989Z,83.87
2019-05-15T10:13:58.654Z,83.37
2019-05-15T10:16:08.366Z,83.46
2019-05-15T10:18:15.661Z,83.39
2019-05-15T10:20:23.279Z,83.46
2019-05-15T10:22:30.750Z,83.69
2019-05-15T10:24:38.189Z,84.09
2019-05-15T10:26:45.548Z,83.19
2019-05-15T10:28:52.963Z,83.50
2019-05-15T10:31:00.477Z,83.91
2019-05-15T10:33:08.674Z,83.50
2019-05-15T10:35:25.770Z,82.88
2019-05-15T10:37:28.267Z,82.87
2019-05-15T10:39:34.792Z,83.37
2019-05-15T10:41:42.337Z,82.68
2019-05-15T10:43:56.536Z,82.52
2019-05-15T10:45:59.040Z,82.66
2019-05-15T10:48:09.273Z,82.86
2019-05-15T10:50:19.003Z,82.82
2019-05-15T10:52:25.924Z,82.71
2019-05-15T10:54:33.576Z,82.23
2019-05-15T10:56:40.992Z,82.57
2019-05-15T10:58:50.577Z,82.49
2019-05-15T11:01:02.118Z,81.95
2019-05-15T11:03:08.877Z,82.17
2019-05-15T11:05:17.985Z,82.11
2019-05-15T11:07:28.278Z,81.99
2019-05-15T11:09:34.837Z,82.04
2019-05-15T11:11:42.395Z,81.74
2019-05-15T11:13:49.893Z,81.53
2019-05-15T11:15:57.463Z,82.02
2019-05-15T11:18:05.146Z,82.76
2019-05-15T11:20:13.255Z,83.17
2019-05-15T11:22:21.136Z,83.96
2019-05-15T11:24:32.199Z,83.63
2019-05-15T11:26:39.057Z,84.56
2019-05-15T11:28:49.465Z,83.92
2019-05-15T11:30:59.169Z,84.80
2019-05-15T11:33:05.443Z,84.14
2019-05-15T11:35:13.763Z,84.74
2019-05-15T11:37:21.403Z,85.10
2019-05-15T11:39:29.051Z,85.45
2019-05-15T11:41:38.692Z,86.29
2019-05-15T11:43:45.943Z,85.70
2019-05-15T11:45:53.356Z,85.58
2019-05-15T11:48:01.128Z,85.18
2019-05-15T11:50:09.912Z,85.00
2019-05-15T11:52:18.826Z,85.31
2019-05-15T11:54:28.288Z,84.73
2019-05-15T11:56:38.937Z,85.33
2019-05-15T11:58:45.610Z,85.61
2019-05-15T12:00:53.290Z,84.94
2019-05-15T12:03:01.384Z,85.62
2019-05-15T12:05:12.205Z,86.07
2019-05-15T12:07:19.737Z,85.13
2019-05-15T12:09:28.252Z,85.94
2019-05-15T12:11:37.932Z,85.20
2019-05-15T12:13:46.415Z,85.16
2019-05-15T12:15:54.473Z,85.35
2019-05-15T12:18:02.071Z,85.77
2019-05-15T12:20:11.096Z,86.30
2019-05-15T12:22:18.896Z,85.16
2019-05-15T12:24:32.834Z,86.14
2019-05-15T12:26:39.239Z,84.91
2019-05-15T12:28:49.046Z,84.98
2019-05-15T12:30:59.561Z,85.55
2019-05-15T12:33:09.267Z,84.25
2019-05-15T12:35:20.501Z,84.54
2019-05-15T12:37:28.491Z,84.29
2019-05-15T12:39:40.617Z,85.12
2019-05-15T13:01:17.025Z,86.29
2019-05-15T13:03:23.328Z,85.90
2019-05-15T13:05:32.551Z,85.61
2019-05-15T13:07:40.494Z,85.68
2019-05-15T13:09:50.532Z,85.74
2019-05-15T13:11:58.243Z,87.12
2019-05-15T13:14:08.146Z,85.85
2019-05-15T13:16:15.354Z,85.87
2019-05-15T13:18:22.833Z,85.51
2019-05-15T13:20:30.440Z,86.85
2019-05-15T13:22:39.341Z,86.38
2019-05-15T13:24:48.242Z,86.14
2019-05-15T13:26:58.216Z,86.96
2019-05-15T13:29:05.823Z,87.19
2019-05-15T13:31:13.478Z,85.67
2019-05-15T13:33:21.075Z,86.77
2019-05-15T13:35:29.081Z,86.73
2019-05-15T13:37:38.850Z,86.33
2019-05-15T13:39:48.393Z,86.06
2019-05-15T13:41:55.497Z,85.99
2019-05-15T13:44:03.214Z,86.05
2019-05-15T13:46:10.784Z,86.71
2019-05-15T13:48:19.937Z,87.53
2019-05-15T13:50:28.587Z,86.55
2019-05-15T13:52:39.206Z,85.78
2019-05-15T13:54:48.376Z,87.19
2019-05-15T13:56:58.057Z,86.70
2019-05-15T13:59:07.877Z,87.30
2019-05-15T14:01:15.436Z,86.85
2019-05-15T14:03:23.132Z,85.69
2019-05-15T14:05:30.955Z,87.46
2019-05-15T14:07:49.024Z,86.27
2019-05-15T14:09:48.997Z,85.90
2019-05-15T14:11:59.438Z,86.17
2019-05-15T14:14:06.462Z,86.63
2019-05-15T14:16:14.507Z,86.63
2019-05-15T14:18:22.171Z,86.09
2019-05-15T14:20:30.207Z,87.04
2019-05-15T14:22:38.946Z,86.70
2019-05-15T14:24:48.882Z,86.63
2019-05-15T14:26:59.149Z,86.98
2019-05-15T14:29:08.846Z,86.63
2019-05-15T14:31:17.760Z,87.68
2019-05-15T14:33:24.842Z,86.82
2019-05-15T14:35:33.671Z,86.99
2019-05-15T14:37:41.548Z,86.55
2019-05-15T14:39:52.281Z,87.82
2019-05-15T14:41:58.573Z,86.69
2019-05-15T14:46:15.845Z,88.29
2019-05-15T14:48:23.513Z,87.76
2019-05-15T14:50:31.297Z,87.17
2019-05-15T14:52:39.037Z,87.66
2019-05-15T14:54:48.996Z,87.57
2019-05-15T14:56:58.111Z,87.48
2019-05-15T14:59:06.112Z,88.10
2019-05-15T15:01:14.206Z,87.47
2019-05-15T15:03:22.368Z,88.25
2019-05-15T15:05:31.782Z,88.55
2019-05-15T15:07:40.341Z,88.21
2019-05-15T15:09:48.124Z,88.92
2019-05-15T15:11:55.691Z,87.25
2019-05-15T15:14:04.763Z,88.04
2019-05-15T15:16:12.445Z,88.74
2019-05-15T15:18:20.686Z,88.50
2019-05-15T15:20:28.762Z,87.32
2019-05-15T15:22:39.127Z,88.29
2019-05-15T15:24:48.122Z,87.86
2019-05-15T15:26:55.380Z,88.78
2019-05-15T15:29:03.569Z,88.02
2019-05-15T15:31:11.310Z,88.12
2019-05-15T15:33:19.245Z,86.52
2019-05-15T15:35:28.896Z,88.53
2019-05-15T15:37:38.179Z,87.92
2019-05-15T15:39:48.198Z,88.06
2019-05-15T15:41:57.765Z,87.55
2019-05-15T15:44:08.195Z,88.55
2019-05-15T15:46:14.971Z,89.16
2019-05-15T15:48:22.788Z,88.36
2019-05-15T15:50:30.364Z,88.45
2019-05-15T15:52:38.544Z,88.38
2019-05-15T15:54:47.198Z,89.93
2019-05-15T15:56:55.222Z,87.93
2019-05-15T15:59:02.945Z,89.05
2019-05-15T16:01:10.893Z,87.84
2019-05-15T16:03:19.503Z,88.81
2019-05-15T16:05:29.114Z,88.83
2019-05-15T16:07:38.032Z,88.89
2019-05-15T16:09:48.164Z,88.25
2019-05-15T16:11:55.107Z,89.37
2019-05-15T16:14:02.947Z,88.83
2019-05-15T16:16:10.445Z,89.22
2019-05-15T16:18:18.502Z,89.15
2019-05-15T16:20:28.676Z,88.86
2019-05-15T16:22:38.159Z,89.79
2019-05-15T16:24:48.997Z,90.14
2019-05-15T16:26:58.008Z,89.49
2019-05-15T16:29:08.544Z,89.40
2019-05-15T16:31:15.596Z,89.94
2019-05-15T16:33:23.663Z,88.73
2019-05-15T16:35:31.246Z,89.35
2019-05-15T16:37:39.333Z,89.42
2019-05-15T16:39:48.791Z,88.36
2019-05-15T16:41:59.334Z,89.11
2019-05-15T16:44:08.584Z,89.76
2019-05-15T16:46:19.294Z,90.48
2019-05-15T16:48:29.073Z,89.47
2019-05-15T16:50:38.176Z,89.88
2019-05-15T16:52:45.956Z,89.48
2019-05-15T16:54:53.969Z,89.72
2019-05-15T16:57:01.520Z,89.03
2019-05-15T16:59:09.353Z,89.45
2019-05-15T17:01:18.761Z,88.77
2019-05-15T17:03:28.696Z,90.63
2019-05-15T17:05:38.216Z,90.02
2019-05-15T17:07:45.404Z,91.26
2019-05-15T17:09:53.171Z,90.90
2019-05-15T17:12:01.729Z,90.74
2019-05-15T17:14:10.153Z,90.76
2019-05-15T17:16:18.700Z,90.68
2019-05-15T17:18:26.653Z,91.72
2019-05-15T17:20:34.198Z,91.45
2019-05-15T17:22:41.844Z,90.96
2019-05-15T17:24:49.538Z,91.00
2019-05-15T17:26:59.555Z,90.77
2019-05-15T17:29:08.888Z,91.17
2019-05-15T17:31:18.111Z,91.26
2019-05-15T17:33:28.377Z,90.80
2019-05-15T17:35:37.900Z,90.83
2019-05-15T17:37:45.209Z,91.33
2019-05-15T17:39:52.703Z,90.88
2019-05-15T17:42:00.976Z,91.03
2019-05-15T17:44:09.372Z,90.76
2019-05-15T17:46:18.531Z,89.68
2019-05-15T17:48:28.608Z,91.35
2019-05-15T17:50:45.944Z,91.04
2019-05-15T17:52:48.932Z,91.55
2019-05-15T17:54:56.119Z,92.11
2019-05-15T17:57:04.294Z,92.50
2019-05-15T17:59:13.019Z,92.01
2019-05-15T18:01:21.918Z,91.54
2019-05-15T18:03:30.206Z,91.52
2019-05-15T18:05:39.307Z,91.11
2019-05-15T18:07:48.812Z,92.17
2019-05-15T18:09:58.957Z,92.00
2019-05-15T18:12:10.974Z,92.13
2019-05-15T18:14:15.682Z,92.46
2019-05-15T18:16:23.519Z,92.03
2019-05-15T18:18:32.671Z,92.12
2019-05-15T18:20:40.236Z,92.31
2019-05-15T18:22:48.217Z,91.98
2019-05-15T18:24:58.110Z,91.97
2019-05-15T18:27:07.867Z,92.48
2019-05-15T18:29:15.002Z,91.97
2019-05-15T18:31:23.766Z,92.33
2019-05-15T18:33:31.821Z,92.52
2019-05-15T18:35:42.088Z,92.02
2019-05-15T18:37:50.486Z,92.45
2019-05-15T18:40:05.457Z,92.41
2019-05-15T18:42:09.007Z,92.88
2019-05-15T18:44:18.908Z,92.11
2019-05-15T18:46:28.732Z,92.68
2019-05-15T18:48:37.902Z,92.60
2019-05-15T18:50:48.185Z,92.89
2019-05-15T18:52:58.123Z,92.96
2019-05-15T18:55:05.127Z,92.13
2019-05-15T18:57:13.619Z,92.42
2019-05-15T18:59:21.582Z,92.69
2019-05-15T19:01:30.516Z,92.64
2019-05-15T19:03:38.632Z,92.60
2019-05-15T19:05:47.717Z,92.56
2019-05-15T19:07:57.725Z,92.25
2019-05-15T19:10:05.209Z,92.38
2019-05-15T19:12:13.255Z,92.60
2019-05-15T19:14:22.503Z,92.72
2019-05-15T19:16:31.791Z,92.78
2019-05-15T19:18:39.419Z,92.57
2019-05-15T19:20:48.659Z,92.10
2019-05-15T19:22:58.719Z,92.43
2019-05-15T19:25:08.595Z,92.45
2019-05-15T19:27:15.527Z,92.27
2019-05-15T19:29:23.190Z,92.29
2019-05-15T19:31:31.256Z,92.19
2019-05-15T19:33:41.129Z,92.13
2019-05-15T19:35:48.561Z,91.98
2019-05-15T19:37:58.726Z,92.28
2019-05-15T19:40:08.612Z,92.05
2019-05-15T19:42:18.103Z,92.39
2019-05-15T19:44:28.362Z,91.97
2019-05-15T19:46:38.508Z,91.76
2019-05-15T19:48:46.014Z,91.76
2019-05-15T19:50:54.805Z,92.02
2019-05-15T19:53:02.743Z,92.11
2019-05-15T19:55:11.655Z,92.17
2019-05-15T19:57:21.152Z,92.62
2019-05-15T19:59:32.603Z,92.18
2019-05-15T20:01:40.654Z,92.01
2019-05-15T20:03:52.987Z,91.97
2019-05-15T20:06:01.351Z,92.25
2019-05-15T20:08:08.572Z,92.31
2019-05-15T20:10:18.693Z,92.19
2019-05-15T20:12:27.921Z,92.02
2019-05-15T20:14:38.182Z,92.11
2019-05-15T20:16:47.971Z,91.88
2019-05-15T20:18:55.181Z,92.57
2019-05-15T20:21:03.158Z,92.19
2019-05-15T20:23:11.104Z,92.02
2019-05-15T20:25:19.179Z,92.38
2019-05-15T20:27:28.259Z,92.36
2019-05-15T20:29:38.213Z,92.04
2019-05-15T20:31:48.207Z,92.10
2019-05-15T20:34:03.263Z,92.08
2019-05-15T20:36:04.883Z,92.36
2019-05-15T20:38:12.924Z,91.82
2019-05-15T20:40:20.834Z,92.14
2019-05-15T20:42:28.567Z,91.66
2019-05-15T20:44:37.923Z,92.15
2019-05-15T20:46:48.442Z,91.92
2019-05-15T20:48:55.208Z,91.60
2019-05-15T20:51:03.514Z,91.73
2019-05-15T20:53:12.685Z,91.41
2019-05-15T20:55:20.505Z,92.03
2019-05-15T20:57:28.547Z,91.59
2019-05-15T20:59:38.565Z,91.71
2019-05-15T21:01:48.303Z,91.14
2019-05-15T21:03:55.732Z,91.78
2019-05-15T21:06:03.612Z,91.54
2019-05-15T21:08:11.414Z,91.48
2019-05-15T21:10:21.838Z,91.13
2019-05-15T21:12:29.924Z,91.29
2019-05-15T21:14:40.170Z,91.18
2019-05-15T21:16:48.555Z,91.09
2019-05-15T21:18:57.723Z,91.06
2019-05-15T21:21:10.250Z,91.22
2019-05-15T21:23:18.123Z,91.40
2019-05-15T21:25:25.205Z,91.58
2019-05-15T21:27:33.680Z,91.61
2019-05-15T21:29:41.799Z,91.50
2019-05-15T21:31:49.330Z,91.70
2019-05-15T21:33:58.740Z,91.81
2019-05-15T21:36:07.914Z,91.66
2019-05-15T21:38:18.476Z,91.42
2019-05-15T21:40:28.006Z,91.08
2019-05-15T21:42:39.155Z,91.56
2019-05-15T21:44:45.990Z,91.50
2019-05-15T21:46:53.679Z,91.32
2019-05-15T21:49:01.092Z,91.23
2019-05-15T21:51:11.675Z,91.37
2019-05-15T21:53:19.880Z,91.54
2019-05-15T21:55:28.855Z,91.24
2019-05-15T21:57:39.959Z,91.47
2019-05-15T21:59:46.160Z,91.19
2019-05-15T22:01:54.135Z,91.02
2019-05-15T22:04:02.490Z,90.36
2019-05-15T22:06:10.328Z,91.14
2019-05-15T22:11:57.495Z,91.11
2019-05-15T22:14:03.757Z,90.65
2019-05-15T22:16:11.882Z,90.82
2019-05-15T22:18:19.712Z,91.05
2019-05-15T22:20:30.220Z,91.13
2019-05-15T22:22:36.699Z,90.72
2019-05-15T22:24:44.356Z,91.43
2019-05-15T22:26:51.853Z,90.93
2019-05-15T22:28:59.718Z,90.96
2019-05-15T22:31:08.925Z,90.59
2019-05-15T22:33:17.885Z,90.83
2019-05-15T22:35:25.558Z,90.58
2019-05-15T22:37:33.225Z,91.09
2019-05-15T22:39:40.661Z,91.08
2019-05-15T22:41:48.305Z,90.95
2019-05-15T22:43:56.185Z,91.02
2019-05-15T22:46:03.813Z,91.16
2019-05-15T22:48:11.315Z,91.29
2019-05-15T22:50:19.236Z,91.33
2019-05-15T22:52:27.851Z,91.24
2019-05-15T22:54:35.465Z,91.55
2019-05-15T22:56:42.889Z,91.14
2019-05-15T22:58:50.360Z,91.49
2019-05-15T23:00:59.707Z,91.49
2019-05-15T23:03:08.382Z,91.30
2019-05-15T23:05:24.943Z,91.10
2019-05-15T23:07:25.384Z,90.67
2019-05-15T23:09:32.721Z,90.57
2019-05-15T23:11:40.556Z,90.83
2019-05-15T23:13:48.521Z,90.91
2019-05-15T23:15:58.256Z,90.86
2019-05-15T23:18:06.007Z,91.00
2019-05-15T23:20:13.867Z,90.57
2019-05-15T23:22:21.442Z,90.98
2019-05-15T23:24:29.238Z,90.98
2019-05-15T23:26:38.637Z,91.24
2019-05-15T23:28:47.939Z,91.21
2019-05-15T23:30:55.092Z,91.27
2019-05-15T23:33:02.575Z,90.75
2019-05-15T23:35:10.294Z,91.23
2019-05-15T23:37:17.836Z,90.73
2019-05-15T23:39:25.329Z,90.92
2019-05-15T23:41:32.745Z,90.67
2019-05-15T23:43:40.302Z,90.85
2019-05-15T23:45:48.350Z,90.89
2019-05-15T23:47:57.980Z,91.30
2019-05-15T23:50:06.063Z,90.51
2019-05-15T23:52:13.470Z,90.96
2019-05-15T23:54:20.974Z,89.96
2019-05-15T23:56:29.046Z,90.73
2019-05-15T23:58:38.084Z,90.83
